Terminal Aerodrome Forecast
Issued by NWS Wakefield, VA

Home | Current Version | Previous Version | Text Only | Print | Product List | Glossary On
Versions: 1 2 3 4 5 6 7 8 9 10 11 12 13 14 15 16 17 18 19 20 21 22 23 24 25 26
959
FTUS41 KAKQ 110522
TAFSBY
TAF
KSBY 110522Z 1106/1206 29012G18KT P6SM VCSH SCT040 OVC080
     FM110700 29012G18KT P6SM BKN100
     FM110800 29012G18KT P6SM SKC
     FM111400 29015G28KT P6SM SKC
     FM112300 30007KT P6SM SKC=

USA.gov is the U.S. government's official web portal to all federal, state and local government web resources and services.